Time;durP1;ratioP1;P1;durP2;ratioP2;P2;SDS_P1;SDS_P2;PMS_P1;PMS_P2;Temp;Humidity;BMP_temperature;BMP_pressure;BME280_temperature;BME280_humidity;BME280_pressure;Samples;Min_cycle;Max_cycle;Signal;HPM_P1;HPM_P2
2022/10/14 00:01:48;;;;;;;;;;;20.40;48.90;;;;;;5068403;28;20003;-67
2022/10/14 00:04:15;;;;;;;;;;;20.40;48.90;;;;;;5067072;28;19920;-67
2022/10/14 00:06:43;;;;;;;;;;;20.40;48.90;;;;;;5068475;28;19920;-67
2022/10/14 00:09:10;;;;;;;;;;;20.40;48.90;;;;;;5067708;28;19990;-67
2022/10/14 00:11:37;;;;;;;;;;;20.40;49.00;;;;;;5084265;28;20426;-67
2022/10/14 00:14:05;;;;;;;;;;;20.40;48.90;;;;;;5060093;28;19921;-66
2022/10/14 00:16:33;;;;;;;;;;;20.40;49.00;;;;;;5054784;28;19921;-67
2022/10/14 00:19:00;;;;;;;;;;;20.40;49.00;;;;;;5068659;28;19920;-67
2022/10/14 00:21:27;;;;;;;;;;;20.40;49.00;;;;;;5068167;28;19951;-67
2022/10/14 00:23:57;;;;;;;;;;;20.40;49.00;;;;;;5069203;28;19921;-67
2022/10/14 00:26:24;;;;;;;;;;;20.40;49.00;;;;;;5067545;28;19920;-67
2022/10/14 00:28:51;;;;;;;;;;;20.40;49.00;;;;;;5069273;28;19990;-67
2022/10/14 00:31:17;;;;;;;;;;;20.40;49.00;;;;;;5071551;28;19960;-67
2022/10/14 00:33:44;;;;;;;;;;;20.40;49.00;;;;;;5071743;28;19920;-68
2022/10/14 00:36:11;;;;;;;;;;;20.40;49.00;;;;;;5072913;28;20030;-67
2022/10/14 00:38:44;;;;;;;;;;;20.40;49.00;;;;;;5072225;28;19927;-68
2022/10/14 00:41:14;;;;;;;;;;;20.40;49.00;;;;;;5071712;28;19925;-68
2022/10/14 00:43:53;;;;;;;;;;;20.40;49.00;;;;;;5073193;28;19921;-68
2022/10/14 00:46:20;;;;;;;;;;;20.40;49.00;;;;;;5072084;28;20016;-68
2022/10/14 00:48:47;;;;;;;;;;;20.40;49.00;;;;;;5071957;28;19924;-68
2022/10/14 00:51:19;;;;;;;;;;;20.40;49.00;;;;;;5062646;28;20505;-68
2022/10/14 00:53:46;;;;;;;;;;;20.40;49.00;;;;;;5072018;28;19928;-68
2022/10/14 00:56:15;;;;;;;;;;;20.40;49.00;;;;;;5073288;28;19982;-67
2022/10/14 00:58:42;;;;;;;;;;;20.40;49.10;;;;;;5054042;28;19920;-68
2022/10/14 01:01:09;;;;;;;;;;;20.40;49.00;;;;;;5068078;28;19920;-67
2022/10/14 01:03:35;;;;;;;;;;;20.40;49.10;;;;;;5071236;28;19927;-67
2022/10/14 01:06:04;;;;;;;;;;;20.40;49.10;;;;;;5070101;28;19928;-68
2022/10/14 01:08:32;;;;;;;;;;;20.40;49.10;;;;;;5071141;28;19978;-67
2022/10/14 01:11:00;;;;;;;;;;;20.40;49.10;;;;;;5069786;28;19921;-68
2022/10/14 01:13:29;;;;;;;;;;;20.40;49.10;;;;;;5067567;28;19955;-68
2022/10/14 01:16:00;;;;;;;;;;;20.40;49.10;;;;;;5068440;28;19967;-68
2022/10/14 01:18:30;;;;;;;;;;;20.40;49.10;;;;;;5067693;28;19933;-67
2022/10/14 01:20:59;;;;;;;;;;;20.40;49.10;;;;;;5067049;28;19979;-68
2022/10/14 01:23:53;;;;;;;;;;;20.40;49.10;;;;;;5069132;28;20016;-68
2022/10/14 01:26:26;;;;;;;;;;;20.40;49.20;;;;;;5058756;28;19981;-68
2022/10/14 01:28:57;;;;;;;;;;;20.40;49.20;;;;;;5086081;28;20023;-68
2022/10/14 01:31:27;;;;;;;;;;;20.40;49.20;;;;;;5072600;28;19920;-68
2022/10/14 01:33:54;;;;;;;;;;;20.40;49.20;;;;;;5067708;28;19921;-68
2022/10/14 01:36:23;;;;;;;;;;;20.40;49.20;;;;;;5051122;28;19924;-68
2022/10/14 01:38:50;;;;;;;;;;;20.40;49.20;;;;;;5069248;28;19995;-68
2022/10/14 01:41:18;;;;;;;;;;;20.40;49.20;;;;;;5070388;28;19976;-68
2022/10/14 01:43:45;;;;;;;;;;;20.40;49.30;;;;;;5072419;28;19931;-68
2022/10/14 01:46:12;;;;;;;;;;;20.40;49.30;;;;;;5070367;28;20022;-68
2022/10/14 01:48:41;;;;;;;;;;;20.40;49.30;;;;;;5068567;28;19921;-68
2022/10/14 01:51:15;;;;;;;;;;;20.40;49.30;;;;;;5063225;28;19924;-68
2022/10/14 01:53:44;;;;;;;;;;;20.40;49.30;;;;;;5070857;28;19991;-68
2022/10/14 01:56:11;;;;;;;;;;;20.40;49.30;;;;;;5070906;28;20438;-68
2022/10/14 01:58:38;;;;;;;;;;;20.40;49.30;;;;;;5070439;28;19978;-67
2022/10/14 02:01:08;;;;;;;;;;;20.40;49.30;;;;;;5087560;28;19924;-67
2022/10/14 02:03:40;;;;;;;;;;;20.40;49.40;;;;;;5087329;28;20023;-66
2022/10/14 02:06:07;;;;;;;;;;;20.40;49.30;;;;;;5081730;28;19935;-66
2022/10/14 02:08:36;;;;;;;;;;;20.40;49.40;;;;;;5082491;28;19920;-67
2022/10/14 02:11:05;;;;;;;;;;;20.40;49.40;;;;;;5070635;28;19924;-67
2022/10/14 02:13:42;;;;;;;;;;;20.40;49.40;;;;;;5069833;28;19993;-67
2022/10/14 02:16:11;;;;;;;;;;;20.40;49.40;;;;;;5071693;28;20019;-67
2022/10/14 02:18:39;;;;;;;;;;;20.40;49.40;;;;;;5086451;28;19932;-68
2022/10/14 02:21:09;;;;;;;;;;;20.40;49.40;;;;;;5065996;28;19925;-66
2022/10/14 02:23:37;;;;;;;;;;;20.40;49.40;;;;;;5081713;28;19928;-67
2022/10/14 02:26:04;;;;;;;;;;;20.40;49.50;;;;;;5066430;28;19956;-67
2022/10/14 02:28:32;;;;;;;;;;;20.40;49.40;;;;;;5064691;28;19920;-67
2022/10/14 02:31:00;;;;;;;;;;;20.40;49.40;;;;;;5065596;28;19928;-67
2022/10/14 02:33:28;;;;;;;;;;;20.40;49.50;;;;;;5066814;28;19994;-67
2022/10/14 02:35:56;;;;;;;;;;;20.40;49.50;;;;;;5068138;28;20041;-67
2022/10/14 02:38:23;;;;;;;;;;;20.40;49.50;;;;;;5085832;28;19920;-67
2022/10/14 02:40:53;;;;;;;;;;;20.40;50.00;;;;;;5070484;28;19966;-67
2022/10/14 02:43:19;;;;;;;;;;;20.40;49.50;;;;;;5065962;28;19928;-68
2022/10/14 02:45:46;;;;;;;;;;;20.40;49.50;;;;;;5067317;28;19921;-67
2022/10/14 02:48:13;;;;;;;;;;;20.40;49.50;;;;;;5060018;28;19920;-67
2022/10/14 02:50:40;;;;;;;;;;;20.30;49.40;;;;;;5050910;28;19921;-68
2022/10/14 02:53:08;;;;;;;;;;;20.30;49.40;;;;;;5081607;28;19948;-67
2022/10/14 02:55:35;;;;;;;;;;;20.30;49.40;;;;;;5069235;28;19970;-68
2022/10/14 02:58:01;;;;;;;;;;;20.40;49.50;;;;;;5069241;28;19942;-68
2022/10/14 03:00:28;;;;;;;;;;;20.40;49.50;;;;;;5069490;28;19959;-67
2022/10/14 03:02:55;;;;;;;;;;;20.40;49.50;;;;;;5069040;28;19924;-67
2022/10/14 03:05:22;;;;;;;;;;;20.30;49.40;;;;;;5069546;28;19926;-68
2022/10/14 03:07:48;;;;;;;;;;;20.40;49.60;;;;;;5066627;28;19960;-67
2022/10/14 03:10:17;;;;;;;;;;;20.40;49.60;;;;;;5066948;28;19951;-67
2022/10/14 03:12:44;;;;;;;;;;;20.40;49.60;;;;;;5070580;28;19920;-67
2022/10/14 03:15:10;;;;;;;;;;;20.40;49.60;;;;;;5068864;28;19924;-68
2022/10/14 03:17:37;;;;;;;;;;;20.40;49.60;;;;;;5069263;28;20045;-69
2022/10/14 03:20:04;;;;;;;;;;;20.30;49.50;;;;;;5068597;28;19925;-67
2022/10/14 03:22:31;;;;;;;;;;;20.40;49.60;;;;;;5069072;28;19967;-69
2022/10/14 03:24:57;;;;;;;;;;;20.30;49.50;;;;;;5068993;28;19920;-68
2022/10/14 03:27:26;;;;;;;;;;;20.30;49.50;;;;;;5085447;28;19959;-68
2022/10/14 03:29:52;;;;;;;;;;;20.30;49.50;;;;;;5078013;28;19920;-68
2022/10/14 03:32:20;;;;;;;;;;;20.30;49.50;;;;;;5085846;28;19931;-67
2022/10/14 03:34:47;;;;;;;;;;;20.40;49.60;;;;;;5068818;28;19924;-68
2022/10/14 03:37:14;;;;;;;;;;;20.30;49.60;;;;;;5064557;28;19927;-68
2022/10/14 03:39:41;;;;;;;;;;;20.30;49.50;;;;;;5067728;28;19943;-69
2022/10/14 03:42:07;;;;;;;;;;;20.40;49.70;;;;;;5068008;28;19975;-68
2022/10/14 03:44:35;;;;;;;;;;;20.40;49.60;;;;;;5068760;28;19964;-69
2022/10/14 03:47:02;;;;;;;;;;;20.30;49.60;;;;;;5085045;28;20347;-69
2022/10/14 03:49:29;;;;;;;;;;;20.40;49.60;;;;;;5083888;28;20703;-69
2022/10/14 03:51:55;;;;;;;;;;;20.40;49.60;;;;;;5085786;28;19948;-69
2022/10/14 03:54:22;;;;;;;;;;;20.40;49.60;;;;;;5068629;28;19931;-69
2022/10/14 03:56:49;;;;;;;;;;;20.40;49.60;;;;;;5084191;28;19928;-69
2022/10/14 03:59:16;;;;;;;;;;;20.40;49.70;;;;;;5068619;28;19920;-69
2022/10/14 04:01:44;;;;;;;;;;;20.40;49.60;;;;;;5068093;28;19928;-69
2022/10/14 04:04:11;;;;;;;;;;;20.40;49.70;;;;;;5085568;28;19959;-68
2022/10/14 04:06:38;;;;;;;;;;;20.40;49.70;;;;;;5072126;28;19920;-69
2022/10/14 04:09:04;;;;;;;;;;;20.30;49.60;;;;;;5064061;28;20079;-68
2022/10/14 04:11:31;;;;;;;;;;;20.30;49.60;;;;;;5052840;28;19991;-69
2022/10/14 04:13:58;;;;;;;;;;;20.40;49.70;;;;;;5083466;28;19946;-69
2022/10/14 04:16:25;;;;;;;;;;;20.40;49.70;;;;;;5087666;28;20011;-67
2022/10/14 04:18:53;;;;;;;;;;;20.40;49.70;;;;;;5073345;28;19920;-68
2022/10/14 04:21:20;;;;;;;;;;;20.30;49.60;;;;;;5072383;28;19920;-68
2022/10/14 04:23:47;;;;;;;;;;;20.40;49.70;;;;;;5073870;28;19925;-68
2022/10/14 04:26:14;;;;;;;;;;;20.40;49.60;;;;;;5068123;28;19921;-67
2022/10/14 04:28:40;;;;;;;;;;;20.40;49.70;;;;;;5076786;28;19928;-68
2022/10/14 04:31:07;;;;;;;;;;;20.40;49.60;;;;;;5088352;28;20311;-67
2022/10/14 04:33:34;;;;;;;;;;;20.30;49.60;;;;;;5073677;28;20019;-68
2022/10/14 04:36:02;;;;;;;;;;;20.40;49.60;;;;;;5071796;28;19928;-68
2022/10/14 04:38:29;;;;;;;;;;;20.40;49.60;;;;;;5072482;28;19921;-67
2022/10/14 04:40:56;;;;;;;;;;;20.30;49.50;;;;;;5071849;28;20344;-68
2022/10/14 04:43:23;;;;;;;;;;;20.40;49.60;;;;;;5088475;28;19926;-68
2022/10/14 04:45:49;;;;;;;;;;;20.40;49.60;;;;;;5088768;28;19935;-67
2022/10/14 04:48:17;;;;;;;;;;;20.30;49.50;;;;;;5071245;28;19924;-68
2022/10/14 04:50:43;;;;;;;;;;;20.30;49.50;;;;;;5072417;28;19951;-68
2022/10/14 04:53:11;;;;;;;;;;;20.40;49.60;;;;;;5071294;28;19960;-67
2022/10/14 04:55:38;;;;;;;;;;;20.30;49.50;;;;;;5071554;28;19921;-68
2022/10/14 04:58:05;;;;;;;;;;;20.30;49.60;;;;;;5066212;28;20027;-68
2022/10/14 05:00:31;;;;;;;;;;;20.30;49.60;;;;;;5071485;28;19948;-68
2022/10/14 05:02:58;;;;;;;;;;;20.40;49.60;;;;;;5070529;28;19956;-68
2022/10/14 05:05:25;;;;;;;;;;;20.30;49.50;;;;;;5058892;28;19953;-67
2022/10/14 05:07:51;;;;;;;;;;;20.30;49.50;;;;;;5064401;28;19983;-69
2022/10/14 05:10:19;;;;;;;;;;;20.40;49.60;;;;;;5067761;28;19956;-68
2022/10/14 05:12:46;;;;;;;;;;;20.40;49.60;;;;;;5051712;28;19964;-68
2022/10/14 05:15:13;;;;;;;;;;;20.30;49.60;;;;;;5069523;28;19946;-67
2022/10/14 05:17:43;;;;;;;;;;;20.30;49.50;;;;;;5071379;28;19955;-68
2022/10/14 05:20:10;;;;;;;;;;;20.40;49.60;;;;;;5069670;28;20455;-68
2022/10/14 05:22:36;;;;;;;;;;;20.30;49.60;;;;;;5070456;28;19924;-68
2022/10/14 05:25:03;;;;;;;;;;;20.40;49.60;;;;;;5071165;28;20289;-68
2022/10/14 05:27:32;;;;;;;;;;;20.40;49.70;;;;;;5057353;28;19924;-68
2022/10/14 05:29:58;;;;;;;;;;;20.40;49.70;;;;;;5066931;28;20270;-68
2022/10/14 05:32:25;;;;;;;;;;;20.40;49.60;;;;;;5071573;28;19921;-67
2022/10/14 05:34:52;;;;;;;;;;;20.30;49.60;;;;;;5070808;28;19920;-68
2022/10/14 05:37:18;;;;;;;;;;;20.40;49.70;;;;;;5071173;28;19920;-68
2022/10/14 05:39:45;;;;;;;;;;;20.40;49.60;;;;;;5071132;28;19980;-68
2022/10/14 05:42:12;;;;;;;;;;;20.30;49.60;;;;;;5070963;28;20015;-68
2022/10/14 05:44:40;;;;;;;;;;;20.30;49.60;;;;;;5071967;28;19921;-68
2022/10/14 05:47:08;;;;;;;;;;;20.40;49.70;;;;;;5070729;28;19924;-68
2022/10/14 05:49:35;;;;;;;;;;;20.30;50.20;;;;;;5071908;28;19920;-68
2022/10/14 05:52:01;;;;;;;;;;;20.40;49.70;;;;;;5070442;28;19990;-67
2022/10/14 05:54:28;;;;;;;;;;;20.40;49.70;;;;;;5072623;28;19978;-67
2022/10/14 05:56:55;;;;;;;;;;;20.30;49.60;;;;;;5070483;28;19927;-68
2022/10/14 05:59:22;;;;;;;;;;;20.40;49.70;;;;;;5086741;28;19928;-68
2022/10/14 06:01:50;;;;;;;;;;;20.40;49.70;;;;;;5068551;28;19927;-68
2022/10/14 06:04:17;;;;;;;;;;;20.40;49.70;;;;;;5059510;28;19986;-68
2022/10/14 06:06:43;;;;;;;;;;;20.40;49.70;;;;;;5087614;28;20019;-68
2022/10/14 06:09:10;;;;;;;;;;;20.30;49.60;;;;;;5070179;28;19974;-68
2022/10/14 06:11:37;;;;;;;;;;;20.40;49.70;;;;;;5065583;28;19924;-68
2022/10/14 06:14:03;;;;;;;;;;;20.40;49.70;;;;;;5071238;28;19921;-67
2022/10/14 06:16:30;;;;;;;;;;;20.30;49.60;;;;;;5070431;28;19946;-67
2022/10/14 06:18:58;;;;;;;;;;;20.40;49.70;;;;;;5069731;28;19956;-68
2022/10/14 06:21:25;;;;;;;;;;;20.30;49.60;;;;;;5071017;28;19925;-67
2022/10/14 06:23:51;;;;;;;;;;;20.30;49.60;;;;;;5070820;28;20425;-69
2022/10/14 06:26:18;;;;;;;;;;;20.40;49.70;;;;;;5070859;28;19936;-68
2022/10/14 06:28:45;;;;;;;;;;;20.40;49.70;;;;;;5069381;28;20023;-68
2022/10/14 06:31:11;;;;;;;;;;;20.40;49.80;;;;;;5069932;28;19925;-69
2022/10/14 06:33:38;;;;;;;;;;;20.40;49.70;;;;;;5070683;28;19966;-68
2022/10/14 06:36:07;;;;;;;;;;;20.40;49.70;;;;;;5065661;28;19956;-69
2022/10/14 06:38:34;;;;;;;;;;;20.40;49.70;;;;;;5068842;28;19924;-68
2022/10/14 06:41:00;;;;;;;;;;;20.40;49.70;;;;;;5069462;28;19987;-68
2022/10/14 06:43:27;;;;;;;;;;;20.40;49.70;;;;;;5065662;28;19940;-68
2022/10/14 06:45:56;;;;;;;;;;;20.40;49.70;;;;;;5073958;28;19983;-69
2022/10/14 06:48:22;;;;;;;;;;;20.30;49.60;;;;;;5068692;28;19942;-69
2022/10/14 06:50:49;;;;;;;;;;;20.40;49.70;;;;;;5074195;28;20482;-68
2022/10/14 06:53:17;;;;;;;;;;;20.40;49.70;;;;;;5074951;28;19970;-68
2022/10/14 06:55:44;;;;;;;;;;;20.40;49.70;;;;;;5068721;28;20019;-68
2022/10/14 06:58:10;;;;;;;;;;;20.40;49.80;;;;;;5064331;28;20354;-68
2022/10/14 07:00:37;;;;;;;;;;;20.40;49.80;;;;;;5085713;28;20020;-69
2022/10/14 07:03:04;;;;;;;;;;;20.40;49.90;;;;;;5064363;28;19974;-69
2022/10/14 07:05:30;;;;;;;;;;;20.40;49.90;;;;;;5064375;28;19956;-70
2022/10/14 07:07:57;;;;;;;;;;;20.40;49.90;;;;;;5079389;28;20037;-76
2022/10/14 07:10:26;;;;;;;;;;;20.30;49.90;;;;;;5069589;28;19927;-69
2022/10/14 07:12:53;;;;;;;;;;;20.40;49.90;;;;;;5072680;28;19920;-71
2022/10/14 07:15:20;;;;;;;;;;;20.40;49.90;;;;;;5088980;28;19927;-71
2022/10/14 07:17:47;;;;;;;;;;;20.40;49.90;;;;;;5074334;28;19943;-71
2022/10/14 07:20:13;;;;;;;;;;;20.40;49.90;;;;;;5090140;28;20209;-74
2022/10/14 07:22:40;;;;;;;;;;;20.40;49.90;;;;;;5094108;28;19921;-73
2022/10/14 07:25:07;;;;;;;;;;;20.40;49.90;;;;;;5089067;28;19920;-74
2022/10/14 07:27:35;;;;;;;;;;;20.40;49.90;;;;;;5067278;28;20326;-72
2022/10/14 07:30:02;;;;;;;;;;;20.40;49.90;;;;;;5082533;28;20003;-71
2022/10/14 07:32:29;;;;;;;;;;;20.40;49.90;;;;;;5074887;28;20381;-69
2022/10/14 07:34:56;;;;;;;;;;;20.40;49.90;;;;;;5073309;28;20328;-71
2022/10/14 07:37:22;;;;;;;;;;;20.50;50.00;;;;;;5076996;28;19963;-71
2022/10/14 07:39:49;;;;;;;;;;;20.50;50.00;;;;;;5095596;28;20017;-75
2022/10/14 07:42:16;;;;;;;;;;;20.40;49.90;;;;;;5068591;28;20390;-74
2022/10/14 07:44:44;;;;;;;;;;;20.40;50.00;;;;;;5074764;28;19952;-63
2022/10/14 07:47:11;;;;;;;;;;;20.50;50.00;;;;;;5073270;28;20389;-62
2022/10/14 07:49:38;;;;;;;;;;;20.50;50.10;;;;;;5071869;28;19973;-61
2022/10/14 07:52:04;;;;;;;;;;;20.50;50.20;;;;;;5066369;28;20201;-63
2022/10/14 07:54:32;;;;;;;;;;;20.50;50.30;;;;;;5076489;28;20007;-63
2022/10/14 07:57:00;;;;;;;;;;;20.50;50.40;;;;;;5076612;28;19919;-63
2022/10/14 07:59:27;;;;;;;;;;;20.50;50.40;;;;;;5082040;28;19925;-63
2022/10/14 08:01:58;;;;;;;;;;;20.50;50.40;;;;;;5070670;28;19932;-63
2022/10/14 08:04:25;;;;;;;;;;;20.50;50.50;;;;;;5063302;28;20771;-64
2022/10/14 08:06:53;;;;;;;;;;;20.50;50.50;;;;;;5069448;28;19981;-63
2022/10/14 08:09:19;;;;;;;;;;;20.60;50.60;;;;;;5086025;28;20333;-63
2022/10/14 08:11:46;;;;;;;;;;;20.60;50.70;;;;;;5068079;28;19921;-62
2022/10/14 08:14:13;;;;;;;;;;;20.60;50.70;;;;;;5066133;28;20011;-62
2022/10/14 08:16:40;;;;;;;;;;;20.60;50.70;;;;;;5071014;28;19920;-61
2022/10/14 08:19:09;;;;;;;;;;;20.60;50.70;;;;;;5075156;28;19960;-61
2022/10/14 08:21:36;;;;;;;;;;;20.60;50.70;;;;;;5074124;28;19958;-60
2022/10/14 08:24:02;;;;;;;;;;;20.60;50.70;;;;;;5089459;28;20020;-61
2022/10/14 08:26:30;;;;;;;;;;;20.60;50.80;;;;;;5071235;28;19997;-62
2022/10/14 08:28:56;;;;;;;;;;;20.60;50.80;;;;;;5077626;28;19920;-62
2022/10/14 08:31:23;;;;;;;;;;;20.60;50.80;;;;;;5065125;28;20037;-69
2022/10/14 08:33:50;;;;;;;;;;;20.70;50.90;;;;;;5068997;28;20401;-70
2022/10/14 08:36:18;;;;;;;;;;;20.70;50.90;;;;;;5075740;28;19977;-69
2022/10/14 08:38:45;;;;;;;;;;;20.70;51.50;;;;;;5091556;28;19920;-68
2022/10/14 08:41:35;;;;;;;;;;;20.70;50.80;;;;;;5068731;28;19929;-68
2022/10/14 08:44:06;;;;;;;;;;;20.70;50.80;;;;;;5041494;28;19933;-68
2022/10/14 08:46:36;;;;;;;;;;;20.70;50.70;;;;;;5076777;28;19966;-69
2022/10/14 08:49:05;;;;;;;;;;;20.70;50.70;;;;;;5081373;28;20336;-68
2022/10/14 08:51:34;;;;;;;;;;;20.70;50.70;;;;;;5075993;28;19975;-68
2022/10/14 08:54:05;;;;;;;;;;;20.70;51.20;;;;;;5074383;28;19922;-71
2022/10/14 08:56:31;;;;;;;;;;;20.70;50.70;;;;;;5070094;28;19924;-72
2022/10/14 08:58:58;;;;;;;;;;;20.70;50.60;;;;;;5073984;28;19956;-70
2022/10/14 09:01:26;;;;;;;;;;;20.70;50.60;;;;;;5093811;28;20019;-68
2022/10/14 09:03:53;;;;;;;;;;;20.70;50.60;;;;;;5088525;28;20026;-68
2022/10/14 09:06:24;;;;;;;;;;;20.70;50.60;;;;;;5076347;28;19924;-69
2022/10/14 09:08:52;;;;;;;;;;;20.70;50.60;;;;;;5075705;28;19984;-69
2022/10/14 09:11:20;;;;;;;;;;;20.70;50.60;;;;;;5076993;28;19948;-70
2022/10/14 09:13:47;;;;;;;;;;;20.70;50.50;;;;;;5070663;28;19932;-70
2022/10/14 09:16:15;;;;;;;;;;;20.70;50.50;;;;;;5092832;28;19978;-70
2022/10/14 09:18:43;;;;;;;;;;;20.70;50.50;;;;;;5079169;28;19994;-69
2022/10/14 09:21:15;;;;;;;;;;;20.70;51.10;;;;;;5075723;28;20446;-68
2022/10/14 09:23:42;;;;;;;;;;;20.70;50.50;;;;;;5080100;28;19964;-68
2022/10/14 09:26:11;;;;;;;;;;;20.70;50.50;;;;;;5074045;28;20050;-66
2022/10/14 09:28:38;;;;;;;;;;;20.70;50.40;;;;;;5075348;28;20033;-69
2022/10/14 09:31:05;;;;;;;;;;;20.70;50.60;;;;;;5079618;28;20011;-70
2022/10/14 09:33:33;;;;;;;;;;;20.70;50.60;;;;;;5077359;28;20277;-71
2022/10/14 09:36:02;;;;;;;;;;;20.70;50.50;;;;;;5072181;28;19932;-71
2022/10/14 09:38:29;;;;;;;;;;;20.70;50.50;;;;;;5072260;28;20441;-71
2022/10/14 09:40:56;;;;;;;;;;;20.70;50.50;;;;;;5076224;28;19962;-70
2022/10/14 09:43:24;;;;;;;;;;;20.70;50.50;;;;;;5078184;28;19924;-71
2022/10/14 09:45:52;;;;;;;;;;;20.70;50.50;;;;;;5075819;28;19928;-70
2022/10/14 09:48:20;;;;;;;;;;;20.80;50.60;;;;;;5094167;28;19960;-70
2022/10/14 09:50:51;;;;;;;;;;;20.80;50.60;;;;;;5089679;28;20027;-71
2022/10/14 09:53:19;;;;;;;;;;;20.80;50.60;;;;;;5068409;28;19927;-71
2022/10/14 09:55:46;;;;;;;;;;;20.80;50.60;;;;;;5072488;28;20414;-71
2022/10/14 09:58:14;;;;;;;;;;;20.80;50.50;;;;;;5070723;28;20037;-70
2022/10/14 10:00:42;;;;;;;;;;;20.80;50.60;;;;;;5068248;28;20277;-71
2022/10/14 10:03:09;;;;;;;;;;;;;;;;;;5091429;28;19950;-68
2022/10/14 10:05:36;;;;;;;;;;;20.80;50.10;;;;;;5089466;28;19920;-70
2022/10/14 10:08:04;;;;;;;;;;;20.80;50.50;;;;;;5077097;28;19931;-69
2022/10/14 10:10:33;;;;;;;;;;;20.80;50.60;;;;;;5076059;28;19956;-70
2022/10/14 10:13:00;;;;;;;;;;;20.80;50.60;;;;;;5077729;28;19920;-72
2022/10/14 10:15:27;;;;;;;;;;;20.80;50.60;;;;;;5074142;28;20035;-71
2022/10/14 10:17:55;;;;;;;;;;;20.80;50.60;;;;;;5066765;28;19920;-70
2022/10/14 10:20:27;;;;;;;;;;;20.80;50.50;;;;;;5072077;28;20340;-70
2022/10/14 10:22:54;;;;;;;;;;;20.80;50.50;;;;;;5076730;28;20007;-71
2022/10/14 10:25:25;;;;;;;;;;;20.80;50.50;;;;;;5074802;28;20247;-70
2022/10/14 10:27:52;;;;;;;;;;;20.80;50.50;;;;;;5071044;28;19974;-71
2022/10/14 10:30:22;;;;;;;;;;;20.80;50.50;;;;;;5090998;28;20011;-69
2022/10/14 10:32:50;;;;;;;;;;;20.80;50.50;;;;;;5074221;28;19921;-70
2022/10/14 10:35:20;;;;;;;;;;;20.80;50.50;;;;;;5074200;28;19960;-73
2022/10/14 10:37:53;;;;;;;;;;;20.80;50.50;;;;;;5076006;28;19942;-76
2022/10/14 10:40:35;;;;;;;;;;;20.80;50.00;;;;;;5069886;28;19942;-72
2022/10/14 10:43:12;;;;;;;;;;;20.80;50.60;;;;;;5068747;28;19996;-76
2022/10/14 10:45:41;;;;;;;;;;;20.80;50.60;;;;;;5074122;28;19921;-71
2022/10/14 10:48:09;;;;;;;;;;;20.80;50.60;;;;;;5077785;28;19960;-64
2022/10/14 10:50:40;;;;;;;;;;;20.80;50.60;;;;;;5070078;28;19955;-69
2022/10/14 10:53:15;;;;;;;;;;;20.80;50.70;;;;;;5067746;28;20354;-76
2022/10/14 10:55:45;;;;;;;;;;;20.80;50.70;;;;;;5086360;28;19956;-80
2022/10/14 10:58:16;;;;;;;;;;;20.80;50.80;;;;;;5072664;28;19924;-78
2022/10/14 11:00:45;;;;;;;;;;;20.80;50.70;;;;;;5084775;28;19928;-77
2022/10/14 11:03:25;;;;;;;;;;;20.80;50.50;;;;;;5068284;28;20244;-76
2022/10/14 11:05:56;;;;;;;;;;;20.80;50.40;;;;;;5072042;28;19975;-76
2022/10/14 11:14:03;;;;;;;;;;;20.70;50.30;;;;;;5068367;28;19924;-76
2022/10/14 11:16:31;;;;;;;;;;;20.80;50.40;;;;;;5064125;28;19932;-76
2022/10/14 11:19:01;;;;;;;;;;;20.70;50.30;;;;;;5067638;28;20019;-76
2022/10/14 11:21:34;;;;;;;;;;;20.70;50.30;;;;;;5067379;28;19925;-76
2022/10/14 11:24:03;;;;;;;;;;;20.70;50.30;;;;;;5069836;28;19967;-76
2022/10/14 11:26:48;;;;;;;;;;;20.70;50.30;;;;;;5063443;28;20116;-71
2022/10/14 11:29:19;;;;;;;;;;;20.70;50.30;;;;;;5073645;28;19932;-74
2022/10/14 11:31:50;;;;;;;;;;;20.70;50.90;;;;;;5052205;28;20015;-74
2022/10/14 11:34:24;;;;;;;;;;;20.70;50.30;;;;;;5082245;28;19924;-74
2022/10/14 11:37:15;;;;;;;;;;;20.80;50.40;;;;;;5067751;28;19960;-73
2022/10/14 11:39:55;;;;;;;;;;;20.80;50.40;;;;;;5083964;28;20008;-74
2022/10/14 11:42:25;;;;;;;;;;;20.80;50.40;;;;;;5067364;28;19933;-73
2022/10/14 11:44:55;;;;;;;;;;;20.80;50.40;;;;;;5068741;28;19966;-72
2022/10/14 11:47:22;;;;;;;;;;;20.80;50.40;;;;;;5066553;28;19931;-74
2022/10/14 11:49:49;;;;;;;;;;;20.80;50.40;;;;;;5067080;28;19925;-76
2022/10/14 11:52:19;;;;;;;;;;;20.80;50.40;;;;;;5081086;28;20443;-73
2022/10/14 11:54:47;;;;;;;;;;;20.80;50.40;;;;;;5079665;28;19936;-74
2022/10/14 11:57:23;;;;;;;;;;;20.80;50.40;;;;;;5066878;28;20013;-73
2022/10/14 11:59:50;;;;;;;;;;;20.80;50.40;;;;;;5067499;28;19924;-72
2022/10/14 12:02:19;;;;;;;;;;;20.80;50.40;;;;;;5065683;28;19939;-73
2022/10/14 12:04:46;;;;;;;;;;;20.80;50.40;;;;;;5083799;28;19932;-75
2022/10/14 12:07:16;;;;;;;;;;;20.90;50.50;;;;;;5066519;28;19921;-73
2022/10/14 12:09:45;;;;;;;;;;;20.80;50.40;;;;;;5067807;28;19920;-73
2022/10/14 12:12:13;;;;;;;;;;;20.80;50.40;;;;;;5064185;28;19984;-75
2022/10/14 12:14:40;;;;;;;;;;;20.90;50.50;;;;;;5067220;28;20067;-78
2022/10/14 12:17:08;;;;;;;;;;;20.90;50.50;;;;;;5066529;28;19963;-70
2022/10/14 12:19:35;;;;;;;;;;;20.90;50.50;;;;;;5083926;28;19924;-70
2022/10/14 12:22:03;;;;;;;;;;;20.90;50.50;;;;;;5068097;28;19920;-71
2022/10/14 12:24:31;;;;;;;;;;;20.90;50.50;;;;;;5066418;28;20011;-73
2022/10/14 12:27:00;;;;;;;;;;;20.90;50.50;;;;;;5082815;28;19940;-73
2022/10/14 12:29:27;;;;;;;;;;;20.90;50.40;;;;;;5083504;28;19920;-73
2022/10/14 12:32:07;;;;;;;;;;;20.90;50.50;;;;;;5071699;28;19948;-72
2022/10/14 12:34:34;;;;;;;;;;;20.90;50.50;;;;;;5070672;28;19967;-72
2022/10/14 12:37:26;;;;;;;;;;;20.90;50.40;;;;;;5069600;28;19956;-79
2022/10/14 12:39:53;;;;;;;;;;;20.90;50.40;;;;;;5071641;28;20007;-82
2022/10/14 12:42:21;;;;;;;;;;;20.90;50.50;;;;;;5076768;28;19925;-73
2022/10/14 12:44:48;;;;;;;;;;;20.90;50.50;;;;;;5070399;28;19924;-72
2022/10/14 12:47:15;;;;;;;;;;;20.90;50.50;;;;;;5072098;28;20023;-72
2022/10/14 12:49:42;;;;;;;;;;;21.00;50.60;;;;;;5071664;28;19995;-72
2022/10/14 12:52:09;;;;;;;;;;;20.90;50.50;;;;;;5071011;28;19984;-71
2022/10/14 12:54:36;;;;;;;;;;;20.90;50.50;;;;;;5066854;28;19968;-70
2022/10/14 12:57:03;;;;;;;;;;;20.90;50.50;;;;;;5066859;28;20023;-71
2022/10/14 12:59:32;;;;;;;;;;;20.90;50.50;;;;;;5069956;28;20007;-72
2022/10/14 13:02:00;;;;;;;;;;;21.00;50.60;;;;;;5070485;28;20027;-71
2022/10/14 13:04:26;;;;;;;;;;;20.90;50.50;;;;;;5067910;28;19974;-70
2022/10/14 13:07:12;;;;;;;;;;;20.90;50.50;;;;;;5068006;28;19963;-70
2022/10/14 13:09:38;;;;;;;;;;;20.90;50.50;;;;;;5066970;28;19920;-73
2022/10/14 13:12:26;;;;;;;;;;;20.90;50.40;;;;;;5088320;28;19928;-71
2022/10/14 13:14:58;;;;;;;;;;;20.90;50.50;;;;;;5067801;28;20419;-71
2022/10/14 13:17:28;;;;;;;;;;;20.90;50.40;;;;;;5066948;28;19921;-70
2022/10/14 13:19:55;;;;;;;;;;;20.90;50.40;;;;;;5068891;28;19921;-71
2022/10/14 13:22:38;;;;;;;;;;;20.90;50.40;;;;;;5069628;28;20353;-71
2022/10/14 13:25:10;;;;;;;;;;;20.90;50.40;;;;;;5085617;28;19999;-73
2022/10/14 13:27:40;;;;;;;;;;;20.90;50.40;;;;;;5061309;28;19920;-72
2022/10/14 13:30:12;;;;;;;;;;;20.90;50.40;;;;;;5070020;28;19927;-72
2022/10/14 13:32:40;;;;;;;;;;;20.90;50.40;;;;;;5069459;28;19933;-72
2022/10/14 13:35:10;;;;;;;;;;;20.90;50.40;;;;;;5086982;28;20282;-71
2022/10/14 13:37:37;;;;;;;;;;;20.90;50.40;;;;;;5069910;28;19999;-70
2022/10/14 13:40:15;;;;;;;;;;;20.90;50.40;;;;;;5065237;28;19931;-69
2022/10/14 13:42:41;;;;;;;;;;;20.90;50.40;;;;;;5067193;28;19920;-73
2022/10/14 13:45:11;;;;;;;;;;;21.00;50.50;;;;;;5085980;28;20003;-70
2022/10/14 13:47:39;;;;;;;;;;;21.00;50.50;;;;;;5065662;28;20381;-71
2022/10/14 13:50:07;;;;;;;;;;;21.00;50.50;;;;;;5066719;28;20047;-70
2022/10/14 13:52:33;;;;;;;;;;;21.00;50.50;;;;;;5065162;28;19925;-71
2022/10/14 13:55:12;;;;;;;;;;;20.90;50.40;;;;;;5069239;28;19920;-71
2022/10/14 13:57:39;;;;;;;;;;;21.00;50.50;;;;;;5065289;28;19963;-72
2022/10/14 14:00:20;;;;;;;;;;;21.00;50.50;;;;;;5084449;28;19968;-71
2022/10/14 14:02:48;;;;;;;;;;;21.00;50.50;;;;;;5065995;28;20011;-70
2022/10/14 14:05:15;;;;;;;;;;;21.00;50.50;;;;;;5069009;28;20007;-71
2022/10/14 14:07:42;;;;;;;;;;;21.00;50.50;;;;;;5070546;28;19942;-71
2022/10/14 14:10:09;;;;;;;;;;;21.00;50.50;;;;;;5073360;28;19963;-71
2022/10/14 14:12:36;;;;;;;;;;;21.00;50.50;;;;;;5085156;28;19975;-71
2022/10/14 14:15:02;;;;;;;;;;;21.00;50.50;;;;;;5065702;28;19920;-72
2022/10/14 14:17:31;;;;;;;;;;;21.00;50.40;;;;;;5067137;28;19932;-72
2022/10/14 14:19:59;;;;;;;;;;;21.00;50.40;;;;;;5067902;28;20019;-72
2022/10/14 14:22:26;;;;;;;;;;;21.00;50.40;;;;;;5086583;28;19924;-70
2022/10/14 14:24:53;;;;;;;;;;;21.00;50.40;;;;;;5066661;28;19934;-72
2022/10/14 14:27:20;;;;;;;;;;;21.00;50.50;;;;;;5067913;28;19920;-70
2022/10/14 14:29:47;;;;;;;;;;;21.00;50.50;;;;;;5068639;28;19966;-70
2022/10/14 14:32:15;;;;;;;;;;;21.00;50.50;;;;;;5068641;28;19964;-70